Time;durP1;ratioP1;P1;durP2;ratioP2;P2;SDS_P1;SDS_P2;PMS_P1;PMS_P2;Temp;Humidity;BMP_temperature;BMP_pressure;BME280_temperature;BME280_humidity;BME280_pressure;Samples;Min_cycle;Max_cycle;Signal;HPM_P1;HPM_P2
2023/06/01 00:01:53;;;;;;;15.23;8.43;;;17.40;90.30;;;;;;4969520;28;20058;-89
2023/06/01 00:04:18;;;;;;;16.02;9.07;;;17.40;90.30;;;;;;4979735;28;20384;-89
2023/06/01 00:06:44;;;;;;;14.52;8.23;;;17.30;90.40;;;;;;4963157;28;20083;-88
2023/06/01 00:09:10;;;;;;;17.02;9.68;;;17.30;90.50;;;;;;4962009;28;20543;-89
2023/06/01 00:11:36;;;;;;;11.85;8.73;;;17.20;90.70;;;;;;4962452;28;20034;-89
2023/06/01 00:14:02;;;;;;;13.68;9.90;;;17.20;90.60;;;;;;4982361;28;20057;-91
2023/06/01 00:16:30;;;;;;;16.98;9.90;;;17.10;90.70;;;;;;4986571;28;20022;-92
2023/06/01 00:18:57;;;;;;;16.98;9.30;;;17.10;90.80;;;;;;4964236;28;20059;-91
2023/06/01 00:21:23;;;;;;;13.25;9.43;;;17.00;90.80;;;;;;4963145;28;20027;-90
2023/06/01 00:23:51;;;;;;;18.42;10.73;;;17.00;90.90;;;;;;4962399;28;20039;-89
2023/06/01 00:26:23;;;;;;;18.33;10.35;;;16.90;90.90;;;;;;4978829;28;20107;-89
2023/06/01 00:28:54;;;;;;;15.88;10.73;;;16.90;91.00;;;;;;4962251;28;20034;-90
2023/06/01 00:31:27;;;;;;;18.40;10.20;;;16.80;91.00;;;;;;4963355;28;20499;-91
2023/06/01 00:33:55;;;;;;;12.75;10.18;;;16.80;91.10;;;;;;4963359;28;20019;-90
2023/06/01 00:36:27;;;;;;;18.73;10.98;;;16.70;91.20;;;;;;4963128;28;20085;-88
2023/06/01 00:39:02;;;;;;;15.35;9.93;;;16.70;91.30;;;;;;4962494;28;20066;-90
2023/06/01 00:41:29;;;;;;;15.43;9.90;;;16.60;91.30;;;;;;4962095;28;20031;-89
2023/06/01 00:43:55;;;;;;;15.48;9.23;;;16.60;91.40;;;;;;4977648;28;20440;-89
2023/06/01 00:46:27;;;;;;;15.77;9.32;;;16.60;91.50;;;;;;4961621;28;20026;-89
2023/06/01 00:48:54;;;;;;;16.95;8.75;;;16.60;91.60;;;;;;4961301;28;20110;-90
2023/06/01 00:51:20;;;;;;;12.75;8.38;;;16.50;91.60;;;;;;4960907;28;20090;-90
2023/06/01 00:53:46;;;;;;;15.07;8.60;;;16.50;91.60;;;;;;4961430;28;20042;-89
2023/06/01 00:56:12;;;;;;;18.48;8.82;;;16.50;91.60;;;;;;4962191;28;20054;-90
2023/06/01 00:58:39;;;;;;;12.93;7.68;;;16.40;91.60;;;;;;4962066;28;20109;-90
2023/06/01 01:01:05;;;;;;;13.25;8.52;;;16.40;91.70;;;;;;4962057;28;20042;-90
2023/06/01 01:03:31;;;;;;;14.32;8.43;;;16.40;91.70;;;;;;4962413;28;20106;-90
2023/06/01 01:06:17;;;;;;;11.57;7.45;;;16.30;91.70;;;;;;4961908;28;20113;-89
2023/06/01 01:09:07;;;;;;;13.20;7.82;;;16.30;91.70;;;;;;4978084;28;20031;-89
2023/06/01 01:11:36;;;;;;;15.65;8.40;;;16.20;92.00;;;;;;4977796;28;20421;-89
2023/06/01 01:14:14;;;;;;;13.32;7.28;;;16.20;92.00;;;;;;4977263;28;20037;-90
2023/06/01 01:16:47;;;;;;;11.45;7.45;;;16.20;92.00;;;;;;4978281;28;20345;-90
2023/06/01 01:19:42;;;;;;;12.43;7.47;;;16.20;92.00;;;;;;4976996;28;20030;-90
2023/06/01 01:22:14;;;;;;;15.18;7.53;;;16.20;92.10;;;;;;4977110;28;20030;-91
2023/06/01 01:25:12;;;;;;;13.65;7.05;;;16.10;92.10;;;;;;4978893;28;20027;-91
2023/06/01 01:27:52;;;;;;;11.88;7.45;;;16.10;92.20;;;;;;4977377;28;20030;-96
2023/06/01 01:30:22;;;;;;;13.48;6.82;;;16.10;92.30;;;;;;4979265;28;20027;-94
2023/06/01 01:32:50;;;;;;;16.02;7.00;;;16.10;92.30;;;;;;4962875;28;20027;-93
2023/06/01 01:35:18;;;;;;;11.90;6.38;;;16.00;92.40;;;;;;4962941;28;20023;-94
2023/06/01 01:37:51;;;;;;;13.40;6.93;;;16.00;92.30;;;;;;4962395;28;20121;-94
2023/06/01 01:40:17;;;;;;;14.63;6.85;;;16.00;92.40;;;;;;4962062;28;20439;-93
2023/06/01 01:42:43;;;;;;;12.57;6.72;;;15.90;92.50;;;;;;4978296;28;20081;-95
2023/06/01 01:45:10;;;;;;;13.70;7.35;;;15.90;92.50;;;;;;4962043;28;20050;-92
2023/06/01 01:47:53;;;;;;;13.45;6.53;;;15.90;92.60;;;;;;4961395;28;20035;-92
2023/06/01 01:50:24;;;;;;;14.10;7.15;;;15.90;92.70;;;;;;4977597;28;20125;-91
2023/06/01 01:52:51;;;;;;;10.13;6.57;;;15.90;92.80;;;;;;4977365;28;20019;-91
2023/06/01 01:55:23;;;;;;;13.10;6.85;;;15.90;92.90;;;;;;4964506;28;20042;-90
2023/06/01 01:57:50;;;;;;;11.95;6.15;;;15.80;92.90;;;;;;4983282;28;20086;-91
2023/06/01 02:00:17;;;;;;;12.13;6.10;;;15.80;93.00;;;;;;4982704;28;20042;-92
2023/06/01 02:02:45;;;;;;;12.15;6.20;;;15.80;93.00;;;;;;4961948;28;20062;-89
2023/06/01 02:05:11;;;;;;;14.02;6.85;;;15.80;93.00;;;;;;4976788;28;20030;-90
2023/06/01 02:07:37;;;;;;;12.98;7.30;;;15.70;93.00;;;;;;4961372;28;20095;-89
2023/06/01 02:10:02;;;;;;;15.05;6.82;;;15.70;93.10;;;;;;4961854;28;20033;-89
2023/06/01 02:12:29;;;;;;;12.82;6.90;;;15.70;93.20;;;;;;4945511;28;20022;-88
2023/06/01 02:14:55;;;;;;;11.13;6.13;;;15.60;93.20;;;;;;4960725;28;20027;-88
2023/06/01 02:17:21;;;;;;;12.15;6.78;;;15.60;93.20;;;;;;4960846;28;20559;-88
2023/06/01 02:19:47;;;;;;;9.93;6.65;;;15.60;93.30;;;;;;4961781;28;20019;-90
2023/06/01 02:22:13;;;;;;;15.90;7.53;;;15.60;93.30;;;;;;4977861;28;20078;-91
2023/06/01 02:24:39;;;;;;;12.52;7.22;;;15.60;93.30;;;;;;4961986;28;20035;-91
2023/06/01 02:27:05;;;;;;;12.73;7.35;;;15.50;93.30;;;;;;4977221;28;20488;-91
2023/06/01 02:29:31;;;;;;;13.20;7.70;;;15.50;93.30;;;;;;4960374;28;20065;-92
2023/06/01 02:31:57;;;;;;;11.10;7.20;;;15.50;93.40;;;;;;4960314;28;20030;-92
2023/06/01 02:34:22;;;;;;;12.13;6.80;;;15.40;93.40;;;;;;4960791;28;20037;-90
2023/06/01 02:36:48;;;;;;;12.52;6.97;;;15.40;93.50;;;;;;4963310;28;20038;-91
2023/06/01 02:39:14;;;;;;;11.57;7.47;;;15.40;93.60;;;;;;4963138;28;20496;-89
2023/06/01 02:41:40;;;;;;;14.07;7.65;;;15.30;93.60;;;;;;4988095;28;20095;-90
2023/06/01 02:44:06;;;;;;;13.35;7.60;;;15.30;93.70;;;;;;4971493;28;20035;-90
2023/06/01 02:46:31;;;;;;;11.15;7.22;;;15.30;93.70;;;;;;4966882;28;20433;-90
2023/06/01 02:48:57;;;;;;;10.52;6.47;;;15.30;93.70;;;;;;4977418;28;20061;-89
2023/06/01 02:51:23;;;;;;;14.48;7.03;;;15.30;93.80;;;;;;4975701;28;20026;-89
2023/06/01 02:53:48;;;;;;;15.20;7.65;;;15.20;93.80;;;;;;4959908;28;20050;-94
2023/06/01 02:56:15;;;;;;;12.02;7.07;;;15.20;93.80;;;;;;4960411;28;20090;-89
2023/06/01 02:58:42;;;;;;;9.82;6.05;;;15.20;93.90;;;;;;4975821;28;20105;-89
2023/06/01 03:01:11;;;;;;;12.68;7.20;;;15.20;94.00;;;;;;4959848;28;20450;-89
2023/06/01 03:03:38;;;;;;;12.25;6.50;;;15.20;94.10;;;;;;4960208;28;20035;-89
2023/06/01 03:06:05;;;;;;;11.75;6.70;;;15.20;94.10;;;;;;4975458;28;20026;-89
2023/06/01 03:08:31;;;;;;;12.70;7.00;;;15.10;94.10;;;;;;4976173;28;20038;-93
2023/06/01 03:10:57;;;;;;;10.88;6.45;;;15.10;94.10;;;;;;4963668;28;20473;-93
2023/06/01 03:13:23;;;;;;;12.40;6.80;;;15.10;94.20;;;;;;4978044;28;20484;-93
2023/06/01 03:15:50;;;;;;;12.75;7.03;;;15.10;94.30;;;;;;4979020;28;20086;-92
2023/06/01 03:18:16;;;;;;;16.38;6.63;;;15.10;94.30;;;;;;4962224;28;20042;-93
2023/06/01 03:20:42;;;;;;;14.30;7.47;;;15.10;94.30;;;;;;4978312;28;20026;-93
2023/06/01 03:23:08;;;;;;;11.45;6.53;;;15.00;94.30;;;;;;4978507;28;20494;-94
2023/06/01 03:25:33;;;;;;;14.00;6.80;;;15.00;94.30;;;;;;4970372;28;20050;-91
2023/06/01 03:27:59;;;;;;;13.98;7.00;;;15.00;94.40;;;;;;4975798;28;20461;-91
2023/06/01 03:30:25;;;;;;;16.48;7.43;;;15.00;94.40;;;;;;4975209;28;20019;-91
2023/06/01 03:32:51;;;;;;;15.02;6.90;;;14.90;94.50;;;;;;4974934;28;20476;-91
2023/06/01 03:35:17;;;;;;;14.13;7.40;;;14.90;94.60;;;;;;4967910;28;20038;-92
2023/06/01 03:37:44;;;;;;;13.57;7.05;;;14.90;94.70;;;;;;4986471;28;20189;-91
2023/06/01 03:40:10;;;;;;;15.02;7.63;;;14.90;94.80;;;;;;4996674;28;20025;-91
2023/06/01 03:42:54;;;;;;;12.23;7.07;;;14.90;94.90;;;;;;4982011;28;20468;-94
2023/06/01 03:45:21;;;;;;;14.00;7.63;;;14.90;94.90;;;;;;4976637;28;20103;-90
2023/06/01 03:47:47;;;;;;;11.63;6.53;;;14.90;94.90;;;;;;4958517;28;20047;-90
2023/06/01 03:50:12;;;;;;;11.57;6.85;;;14.80;95.00;;;;;;4959624;28;20582;-90
2023/06/01 03:52:39;;;;;;;14.35;7.13;;;14.80;95.00;;;;;;4958614;28;20077;-90
2023/06/01 03:55:08;;;;;;;11.70;6.80;;;14.80;95.00;;;;;;4958929;28;20062;-90
2023/06/01 03:57:35;;;;;;;14.00;7.15;;;14.80;95.10;;;;;;4959597;28;20038;-93
2023/06/01 04:00:17;;;;;;;13.85;7.43;;;14.70;95.10;;;;;;4977037;28;20030;-93
2023/06/01 04:02:48;;;;;;;14.18;7.07;;;14.70;95.10;;;;;;4962089;28;20031;-94
2023/06/01 04:05:16;;;;;;;13.80;6.47;;;14.70;95.20;;;;;;4978239;28;20085;-91
2023/06/01 04:07:50;;;;;;;15.52;5.95;;;14.70;95.30;;;;;;4961496;28;20034;-92
2023/06/01 04:10:16;;;;;;;16.10;7.05;;;14.70;95.30;;;;;;4977889;28;20211;-90
2023/06/01 04:12:47;;;;;;;15.88;7.97;;;14.70;95.30;;;;;;4960955;28;20051;-92
2023/06/01 04:15:14;;;;;;;11.75;6.85;;;14.70;95.50;;;;;;4979964;28;20034;-92
2023/06/01 04:17:41;;;;;;;12.23;6.38;;;14.70;95.40;;;;;;4962800;28;20065;-92
2023/06/01 04:20:10;;;;;;;14.52;6.28;;;14.70;95.50;;;;;;4985543;28;20030;-93
2023/06/01 04:22:37;;;;;;;14.15;6.05;;;14.60;95.60;;;;;;4994176;28;20015;-91
2023/06/01 04:25:08;;;;;;;12.73;6.00;;;14.60;95.60;;;;;;4993267;28;20064;-91
2023/06/01 04:27:37;;;;;;;14.07;6.20;;;14.60;95.70;;;;;;4984820;28;20030;-89
2023/06/01 04:30:10;;;;;;;12.32;6.63;;;14.60;95.70;;;;;;4962981;28;20440;-91
2023/06/01 04:32:37;;;;;;;18.48;6.35;;;14.60;95.80;;;;;;4978418;28;20033;-91
2023/06/01 04:35:05;;;;;;;14.32;6.75;;;14.60;95.90;;;;;;4963576;28;20122;-91
2023/06/01 04:37:35;;;;;;;13.75;6.65;;;14.60;95.90;;;;;;4962884;28;20114;-92
2023/06/01 04:40:06;;;;;;;11.23;6.20;;;14.60;96.00;;;;;;4980722;28;20034;-93
2023/06/01 04:42:33;;;;;;;12.32;5.72;;;14.60;96.00;;;;;;4965204;28;20388;-92
2023/06/01 04:44:59;;;;;;;10.95;5.70;;;14.60;96.00;;;;;;4982079;28;20019;-93
2023/06/01 04:47:24;;;;;;;15.55;6.10;;;14.60;96.10;;;;;;4984509;28;20054;-92
2023/06/01 04:49:50;;;;;;;12.68;5.63;;;14.60;96.10;;;;;;4962884;28;20422;-91
2023/06/01 04:52:16;;;;;;;13.88;5.78;;;14.60;96.20;;;;;;4979476;28;20035;-92
2023/06/01 04:54:41;;;;;;;12.25;5.55;;;14.60;96.20;;;;;;4946636;28;20046;-92
2023/06/01 04:57:07;;;;;;;11.88;5.82;;;14.60;96.30;;;;;;4979096;28;20038;-92
2023/06/01 04:59:33;;;;;;;12.32;6.20;;;14.60;96.30;;;;;;4963074;28;20031;-92
2023/06/01 05:02:00;;;;;;;12.55;5.53;;;14.60;96.40;;;;;;4963037;28;20119;-89
2023/06/01 05:04:26;;;;;;;15.02;5.95;;;14.60;96.40;;;;;;4983202;28;20038;-93
2023/06/01 05:06:51;;;;;;;12.85;5.70;;;14.60;96.40;;;;;;4981335;28;20057;-94
2023/06/01 05:09:18;;;;;;;11.10;5.70;;;14.60;96.50;;;;;;4996898;28;20420;-94
2023/06/01 05:11:44;;;;;;;12.63;5.85;;;14.60;96.50;;;;;;4980595;28;20039;-94
2023/06/01 05:14:13;;;;;;;13.77;5.68;;;14.60;96.50;;;;;;4964693;28;20037;-89
2023/06/01 05:16:38;;;;;;;11.70;5.32;;;14.60;96.50;;;;;;4962371;28;20034;-90
2023/06/01 05:19:04;;;;;;;14.57;6.53;;;14.50;96.50;;;;;;4962481;28;20468;-89
2023/06/01 05:21:31;;;;;;;13.73;6.20;;;14.60;96.50;;;;;;4967493;28;20050;-88
2023/06/01 05:23:59;;;;;;;11.85;6.07;;;14.60;96.50;;;;;;4982495;28;20152;-91
2023/06/01 05:26:25;;;;;;;15.35;6.03;;;14.50;96.60;;;;;;4976390;28;20042;-90
2023/06/01 05:28:50;;;;;;;13.00;6.40;;;14.50;96.70;;;;;;4979135;28;20436;-89
2023/06/01 05:31:16;;;;;;;10.77;6.05;;;14.50;96.70;;;;;;4963809;28;20081;-90
2023/06/01 05:33:42;;;;;;;14.02;6.68;;;14.60;96.80;;;;;;4982296;28;20022;-94
2023/06/01 05:36:09;;;;;;;12.07;6.07;;;14.60;96.90;;;;;;4965723;28;20484;-93
2023/06/01 05:38:35;;;;;;;12.10;6.07;;;14.60;97.20;;;;;;4979834;28;20023;-91
2023/06/01 05:41:01;;;;;;;10.93;6.20;;;14.60;96.90;;;;;;4978202;28;20034;-91
2023/06/01 05:43:26;;;;;;;12.60;6.20;;;14.60;96.90;;;;;;4963044;28;20041;-90
2023/06/01 05:45:52;;;;;;;12.25;6.82;;;14.60;96.80;;;;;;4962860;28;20035;-94
2023/06/01 05:48:18;;;;;;;12.68;6.63;;;14.50;96.80;;;;;;4964595;28;20031;-95
2023/06/01 05:50:44;;;;;;;15.75;6.70;;;14.50;96.80;;;;;;4968752;28;20031;-94
2023/06/01 05:53:09;;;;;;;16.30;7.10;;;14.50;96.90;;;;;;4970989;28;20037;-94
2023/06/01 05:55:35;;;;;;;13.05;6.53;;;14.50;96.90;;;;;;4978793;28;20049;-88
2023/06/01 05:58:01;;;;;;;12.90;6.35;;;14.50;97.00;;;;;;4980041;28;20027;-89
2023/06/01 06:00:27;;;;;;;15.02;7.03;;;14.50;97.00;;;;;;4979523;28;20045;-87
2023/06/01 06:02:52;;;;;;;13.40;6.40;;;14.50;97.10;;;;;;4988665;28;20129;-89
2023/06/01 06:05:18;;;;;;;13.40;6.50;;;14.60;97.20;;;;;;4964137;28;20026;-89
2023/06/01 06:07:44;;;;;;;17.90;6.85;;;14.50;97.20;;;;;;4964074;28;20026;-91
2023/06/01 06:10:11;;;;;;;12.95;6.80;;;14.50;97.30;;;;;;4964261;28;20380;-90
2023/06/01 06:12:37;;;;;;;14.07;6.20;;;14.60;97.30;;;;;;4963696;28;20034;-90
2023/06/01 06:15:04;;;;;;;12.40;6.68;;;14.60;97.30;;;;;;4962989;28;20492;-89
2023/06/01 06:17:29;;;;;;;15.70;6.90;;;14.60;97.30;;;;;;4979398;28;20027;-89
2023/06/01 06:19:55;;;;;;;14.25;6.65;;;14.60;97.30;;;;;;4979374;28;20114;-89
2023/06/01 06:22:22;;;;;;;11.55;6.50;;;14.60;97.30;;;;;;4979002;28;20026;-90
2023/06/01 06:24:49;;;;;;;13.88;6.47;;;14.60;97.40;;;;;;4963065;28;20053;-90
2023/06/01 06:27:15;;;;;;;14.15;6.90;;;14.60;97.40;;;;;;4963369;28;20014;-89
2023/06/01 06:29:41;;;;;;;19.17;6.72;;;14.60;97.50;;;;;;4963708;28;20027;-91
2023/06/01 06:32:07;;;;;;;13.32;6.10;;;14.60;97.50;;;;;;4963536;28;20018;-90
2023/06/01 06:34:36;;;;;;;13.50;6.60;;;14.60;97.50;;;;;;4963379;28;20042;-90
2023/06/01 06:37:06;;;;;;;11.73;5.72;;;14.70;97.50;;;;;;4963852;28;20106;-90
2023/06/01 06:39:33;;;;;;;13.32;6.20;;;14.70;97.50;;;;;;4963202;28;20034;-89
2023/06/01 06:42:02;;;;;;;18.65;7.10;;;14.70;97.50;;;;;;4979085;28;20200;-90
2023/06/01 06:44:28;;;;;;;12.30;6.68;;;14.70;97.60;;;;;;4963659;28;20026;-91
2023/06/01 06:46:53;;;;;;;12.85;6.95;;;14.70;97.60;;;;;;4970094;28;20364;-90
2023/06/01 06:49:19;;;;;;;12.60;6.22;;;14.70;97.70;;;;;;5003794;28;20041;-91
2023/06/01 06:51:45;;;;;;;15.68;6.35;;;14.70;97.70;;;;;;4971097;28;20033;-91
2023/06/01 06:54:11;;;;;;;11.32;6.40;;;14.80;97.70;;;;;;4967930;28;20042;-92
2023/06/01 06:56:37;;;;;;;17.05;6.30;;;14.80;97.80;;;;;;4980924;28;20088;-92
2023/06/01 06:59:03;;;;;;;10.80;6.30;;;14.80;97.90;;;;;;4964976;28;20050;-91
2023/06/01 07:01:28;;;;;;;12.85;6.63;;;14.90;98.00;;;;;;4981027;28;20029;-89
2023/06/01 07:03:55;;;;;;;13.50;6.65;;;14.90;98.00;;;;;;4967147;28;20120;-88
2023/06/01 07:06:22;;;;;;;16.27;6.35;;;14.90;98.00;;;;;;4981418;28;20026;-89
2023/06/01 07:08:49;;;;;;;16.48;6.22;;;15.00;98.10;;;;;;4963761;28;20034;-89
2023/06/01 07:11:16;;;;;;;11.20;5.70;;;15.00;98.10;;;;;;4963275;28;20046;-89
2023/06/01 07:13:43;;;;;;;14.27;6.18;;;15.00;98.20;;;;;;4962767;28;20030;-89
2023/06/01 07:16:08;;;;;;;12.88;5.88;;;15.00;98.20;;;;;;4962377;28;20038;-89
2023/06/01 07:18:34;;;;;;;13.20;6.63;;;15.10;98.20;;;;;;4963028;28;20026;-92
2023/06/01 07:21:00;;;;;;;11.65;5.32;;;15.10;98.20;;;;;;4979659;28;20034;-92
2023/06/01 07:23:26;;;;;;;12.43;5.82;;;15.10;98.20;;;;;;4963321;28;20034;-91
2023/06/01 07:25:51;;;;;;;11.02;5.22;;;15.20;98.30;;;;;;4965898;28;20030;-90
2023/06/01 07:28:18;;;;;;;13.38;6.40;;;15.20;98.30;;;;;;4966078;28;20026;-91
2023/06/01 07:30:44;;;;;;;11.73;6.72;;;15.30;98.40;;;;;;4982561;28;20026;-91
2023/06/01 07:33:10;;;;;;;10.20;5.18;;;15.30;98.40;;;;;;4983232;28;20018;-92
2023/06/01 07:35:36;;;;;;;11.43;5.93;;;15.30;98.40;;;;;;4984656;28;20458;-91
2023/06/01 07:38:03;;;;;;;11.93;5.50;;;15.40;98.40;;;;;;4989736;28;20026;-91
2023/06/01 07:40:30;;;;;;;13.27;6.32;;;15.40;98.40;;;;;;5007653;28;20030;-90
2023/06/01 07:42:55;;;;;;;13.57;5.97;;;15.50;98.40;;;;;;4990781;28;20056;-90
2023/06/01 07:45:21;;;;;;;11.95;5.75;;;15.50;98.40;;;;;;4974374;28;20038;-88
2023/06/01 07:47:47;;;;;;;12.20;5.82;;;15.60;98.40;;;;;;4986868;28;20026;-90
2023/06/01 07:50:13;;;;;;;13.30;5.90;;;15.60;98.50;;;;;;4983832;28;20034;-89
2023/06/01 07:52:42;;;;;;;11.25;5.50;;;15.60;98.50;;;;;;4966065;28;20026;-91
2023/06/01 07:55:09;;;;;;;11.68;6.32;;;15.70;98.40;;;;;;4966115;28;20054;-91
2023/06/01 07:57:41;;;;;;;13.45;6.10;;;15.70;98.30;;;;;;4982018;28;20039;-90
2023/06/01 08:00:11;;;;;;;16.75;6.25;;;15.70;98.40;;;;;;4998216;28;20470;-90
2023/06/01 08:02:36;;;;;;;15.70;6.22;;;15.70;98.30;;;;;;4969665;28;20104;-91
2023/06/01 08:05:02;;;;;;;12.13;5.63;;;15.80;98.40;;;;;;4969275;28;20061;-91
2023/06/01 08:07:29;;;;;;;10.15;5.45;;;15.80;98.30;;;;;;4969188;28;20415;-91
2023/06/01 08:09:55;;;;;;;12.43;6.00;;;15.80;98.20;;;;;;4986728;28;20092;-92
2023/06/01 08:12:21;;;;;;;12.45;5.60;;;15.80;98.10;;;;;;4970457;28;20050;-92
2023/06/01 08:14:47;;;;;;;10.52;5.72;;;15.90;98.10;;;;;;4969822;28;20026;-92
2023/06/01 08:17:13;;;;;;;13.75;5.53;;;15.90;98.30;;;;;;4971354;28;20037;-92
2023/06/01 08:19:43;;;;;;;13.05;6.53;;;16.00;98.40;;;;;;4970705;28;20057;-91
2023/06/01 08:22:09;;;;;;;9.48;4.93;;;16.00;98.50;;;;;;5002234;28;20498;-92
2023/06/01 08:24:35;;;;;;;14.63;5.80;;;16.10;98.40;;;;;;4986578;28;20410;-91
2023/06/01 08:27:04;;;;;;;10.48;5.88;;;16.10;98.30;;;;;;4985386;28;20030;-91
2023/06/01 08:29:30;;;;;;;10.07;5.50;;;16.10;98.40;;;;;;4969343;28;20026;-91
2023/06/01 08:31:59;;;;;;;11.60;5.72;;;16.20;98.40;;;;;;4969986;28;20022;-91
2023/06/01 08:34:25;;;;;;;9.00;5.80;;;16.20;98.60;;;;;;4985370;28;20423;-91
2023/06/01 08:36:50;;;;;;;12.82;6.15;;;16.30;98.40;;;;;;5001779;28;20030;-91
2023/06/01 08:39:23;;;;;;;11.43;5.05;;;16.30;98.50;;;;;;4969629;28;20113;-95
2023/06/01 08:42:06;;;;;;;11.70;5.20;;;16.40;98.50;;;;;;5001843;28;20026;-91
2023/06/01 08:44:43;;;;;;;11.20;5.20;;;16.40;98.40;;;;;;5000935;28;20036;-90
2023/06/01 08:47:09;;;;;;;11.50;5.60;;;16.50;98.40;;;;;;5001087;28;20486;-91
2023/06/01 08:49:36;;;;;;;9.60;5.15;;;16.60;98.30;;;;;;4981157;28;20127;-91
2023/06/01 08:52:06;;;;;;;8.95;4.35;;;16.60;98.30;;;;;;4981556;28;20040;-91
2023/06/01 08:54:33;;;;;;;12.10;5.03;;;16.60;98.20;;;;;;4997095;28;20046;-92
2023/06/01 08:57:05;;;;;;;11.30;5.25;;;16.70;98.20;;;;;;4983300;28;20029;-91
2023/06/01 08:59:31;;;;;;;11.27;5.65;;;16.80;98.10;;;;;;5030303;28;20028;-92
2023/06/01 09:01:58;;;;;;;9.18;5.13;;;16.80;98.00;;;;;;5005819;28;20025;-92
2023/06/01 09:04:23;;;;;;;11.27;5.70;;;16.90;97.80;;;;;;5021294;28;20026;-92
2023/06/01 09:06:49;;;;;;;9.00;5.03;;;16.90;97.90;;;;;;5005305;28;20032;-93
2023/06/01 09:09:15;;;;;;;9.10;5.22;;;17.00;97.90;;;;;;5020990;28;20021;-91
2023/06/01 09:11:40;;;;;;;11.90;5.35;;;17.00;97.60;;;;;;5004070;28;20470;-91
2023/06/01 09:14:23;;;;;;;11.43;5.22;;;17.10;97.50;;;;;;4986858;28;20025;-91
2023/06/01 09:16:50;;;;;;;8.07;4.97;;;17.10;97.50;;;;;;5004247;28;20022;-90
2023/06/01 09:19:16;;;;;;;11.73;5.40;;;17.20;97.50;;;;;;5003493;28;20025;-90
2023/06/01 09:21:57;;;;;;;12.63;5.75;;;17.20;97.50;;;;;;4987969;28;20041;-90
2023/06/01 09:24:24;;;;;;;12.48;5.40;;;17.30;97.20;;;;;;4980708;28;20554;-91
2023/06/01 09:26:50;;;;;;;10.88;5.20;;;17.30;97.10;;;;;;4981009;28;20392;-90
2023/06/01 09:29:17;;;;;;;11.18;5.80;;;17.40;97.00;;;;;;4996388;28;20027;-90
2023/06/01 09:31:47;;;;;;;11.30;5.40;;;17.40;96.90;;;;;;4980971;28;20023;-89
2023/06/01 09:34:18;;;;;;;9.65;5.03;;;17.40;96.80;;;;;;4997815;28;20054;-90
2023/06/01 09:36:45;;;;;;;11.32;5.35;;;17.50;96.80;;;;;;4998521;28;20030;-90
2023/06/01 09:39:14;;;;;;;14.25;5.47;;;17.60;96.70;;;;;;4999690;28;20113;-90
2023/06/01 09:41:53;;;;;;;10.23;4.82;;;17.60;96.60;;;;;;4980897;28;20037;-90
2023/06/01 09:44:27;;;;;;;9.35;5.30;;;17.70;96.70;;;;;;4989471;28;20491;-91
2023/06/01 09:46:58;;;;;;;12.88;5.10;;;17.70;96.60;;;;;;4983887;28;20030;-91
2023/06/01 09:49:26;;;;;;;9.93;4.75;;;17.80;96.60;;;;;;4999429;28;20056;-90
2023/06/01 09:52:04;;;;;;;6.97;3.53;;;17.80;96.40;;;;;;4999398;28;20030;-89
2023/06/01 09:54:32;;;;;;;10.30;4.38;;;17.80;96.30;;;;;;5017077;28;20081;-91
2023/06/01 09:57:00;;;;;;;8.35;4.15;;;17.90;96.40;;;;;;5016067;28;20025;-90
2023/06/01 09:59:30;;;;;;;7.85;4.22;;;18.00;96.40;;;;;;4998838;28;20025;-90
2023/06/01 10:01:57;;;;;;;7.43;3.80;;;18.00;96.30;;;;;;4999880;28;20188;-90
2023/06/01 10:04:28;;;;;;;7.35;3.58;;;18.10;96.10;;;;;;4999585;28;20021;-94
2023/06/01 10:06:56;;;;;;;7.00;3.60;;;18.20;96.20;;;;;;5000076;28;20491;-94
2023/06/01 10:09:24;;;;;;;8.80;3.53;;;18.20;96.20;;;;;;4999751;28;20026;-94
2023/06/01 10:11:54;;;;;;;8.23;3.67;;;18.20;96.10;;;;;;4999862;28;20022;-93
2023/06/01 10:14:24;;;;;;;10.77;4.00;;;18.30;96.10;;;;;;5000137;28;20025;-95
2023/06/01 10:16:52;;;;;;;8.18;3.97;;;18.40;96.10;;;;;;4999996;28;20025;-94
2023/06/01 10:19:20;;;;;;;7.32;3.85;;;18.40;96.00;;;;;;4999840;28;20030;-94
2023/06/01 10:21:46;;;;;;;9.05;3.75;;;18.50;95.90;;;;;;4999065;28;20402;-91
2023/06/01 10:24:17;;;;;;;8.73;3.90;;;18.60;95.90;;;;;;4998476;28;20125;-91
2023/06/01 10:27:12;;;;;;;9.55;4.20;;;18.70;95.80;;;;;;4998434;28;20057;-90
2023/06/01 10:29:38;;;;;;;7.45;3.72;;;18.60;95.70;;;;;;4995301;28;20092;-92
2023/06/01 10:32:04;;;;;;;8.60;3.90;;;18.70;95.60;;;;;;4998777;28;20026;-91
2023/06/01 10:34:44;;;;;;;6.65;3.83;;;18.80;95.30;;;;;;4982639;28;20042;-92
2023/06/01 10:37:17;;;;;;;8.52;4.10;;;18.80;95.40;;;;;;4999066;28;20022;-92
2023/06/01 10:39:43;;;;;;;11.90;3.97;;;18.90;95.40;;;;;;4998088;28;20022;-94
2023/06/01 10:42:18;;;;;;;9.18;3.92;;;18.90;95.20;;;;;;5014944;28;20018;-92
2023/06/01 10:44:47;;;;;;;6.95;3.65;;;19.00;95.20;;;;;;5003191;28;20038;-95
2023/06/01 10:47:12;;;;;;;9.75;4.05;;;19.00;95.00;;;;;;4983525;28;20061;-94
2023/06/01 10:49:50;;;;;;;8.90;4.20;;;19.10;94.60;;;;;;4999108;28;20475;-94
2023/06/01 10:52:29;;;;;;;11.90;4.30;;;19.10;94.70;;;;;;4999324;28;20025;-94
2023/06/01 10:55:16;;;;;;;8.85;3.72;;;19.20;94.80;;;;;;4979581;28;20061;-93
2023/06/01 10:57:46;;;;;;;7.35;4.07;;;19.20;94.70;;;;;;4985379;28;20031;-92
2023/06/01 11:00:20;;;;;;;10.13;4.22;;;19.30;94.70;;;;;;4977101;28;20032;-93
2023/06/01 11:02:55;;;;;;;5.82;3.40;;;19.30;94.80;;;;;;5007049;28;20031;-93
2023/06/01 11:05:47;;;;;;;9.68;3.75;;;19.40;94.80;;;;;;4996153;28;20045;-92
2023/06/01 11:08:28;;;;;;;8.93;4.10;;;19.40;94.80;;;;;;4995833;28;20030;-91
2023/06/01 11:10:59;;;;;;;8.55;3.92;;;19.50;94.70;;;;;;4995196;28;20105;-93
2023/06/01 11:13:33;;;;;;;9.93;4.25;;;19.60;94.60;;;;;;4995687;28;20137;-92
2023/06/01 11:16:09;;;;;;;9.10;3.67;;;19.60;94.70;;;;;;4995582;28;20042;-91
2023/06/01 11:18:41;;;;;;;8.30;3.95;;;19.70;94.50;;;;;;4996426;28;20118;-92
2023/06/01 11:21:30;;;;;;;8.98;4.47;;;19.80;94.30;;;;;;4995794;28;20030;-92
2023/06/01 11:23:58;;;;;;;8.95;3.92;;;19.80;94.30;;;;;;4998451;28;20034;-91
2023/06/01 11:26:43;;;;;;;9.80;3.78;;;19.90;94.30;;;;;;4998911;28;20034;-90
2023/06/01 11:29:25;;;;;;;8.20;3.97;;;19.90;94.20;;;;;;4995381;28;20027;-88
2023/06/01 11:32:05;;;;;;;7.82;4.03;;;20.00;94.20;;;;;;4974192;28;20163;-88
2023/06/01 11:34:34;;;;;;;8.02;3.70;;;20.00;94.10;;;;;;4983859;28;20022;-88
2023/06/01 11:37:15;;;;;;;11.82;4.00;;;20.10;94.30;;;;;;4994588;28;20023;-88
2023/06/01 11:39:41;;;;;;;11.18;3.63;;;20.20;93.70;;;;;;4997808;28;20056;-88
2023/06/01 11:42:08;;;;;;;7.20;3.45;;;20.20;93.60;;;;;;4981287;28;20026;-87
2023/06/01 11:44:36;;;;;;;7.93;3.88;;;20.30;93.70;;;;;;4997899;28;20034;-93
2023/06/01 11:47:03;;;;;;;6.68;3.53;;;20.30;93.60;;;;;;4984289;28;20037;-93
2023/06/01 11:49:29;;;;;;;7.88;3.58;;;20.40;93.40;;;;;;4983933;28;20061;-93
2023/06/01 11:51:56;;;;;;;9.88;4.10;;;20.40;93.10;;;;;;4967031;28;20027;-92
2023/06/01 11:54:28;;;;;;;7.70;3.60;;;20.50;93.20;;;;;;5006877;28;20050;-93
2023/06/01 11:56:55;;;;;;;7.55;3.42;;;20.50;93.30;;;;;;5003138;28;20033;-93
2023/06/01 11:59:21;;;;;;;7.35;3.40;;;20.60;93.20;;;;;;5002682;28;20036;-92
2023/06/01 12:01:49;;;;;;;6.40;3.47;;;20.70;93.00;;;;;;5019487;28;20053;-93
2023/06/01 12:04:25;;;;;;;9.70;3.78;;;20.70;92.90;;;;;;5019756;28;20018;-93
2023/06/01 12:06:51;;;;;;;8.30;3.80;;;20.70;92.90;;;;;;5003386;28;20049;-92
2023/06/01 12:09:17;;;;;;;9.13;3.67;;;20.80;92.90;;;;;;5019040;28;20033;-91
2023/06/01 12:11:44;;;;;;;8.70;3.90;;;20.80;92.80;;;;;;5005390;28;20384;-89
2023/06/01 12:14:14;;;;;;;8.48;3.78;;;20.90;92.70;;;;;;4992858;28;20026;-90
2023/06/01 12:16:56;;;;;;;8.10;4.57;;;21.00;92.50;;;;;;5030316;28;20026;-89
2023/06/01 12:19:22;;;;;;;7.15;4.07;;;21.00;92.50;;;;;;5019959;28;20467;-88
2023/06/01 12:21:54;;;;;;;9.07;3.55;;;21.10;92.40;;;;;;5001361;28;20036;-91
2023/06/01 12:24:30;;;;;;;7.22;3.25;;;21.10;92.00;;;;;;5017676;28;20022;-91
2023/06/01 12:26:58;;;;;;;8.70;3.90;;;21.10;92.00;;;;;;5002382;28;20034;-90
2023/06/01 12:29:41;;;;;;;7.05;3.92;;;21.20;92.20;;;;;;5001612;28;20034;-91
2023/06/01 12:32:09;;;;;;;12.02;3.80;;;21.30;92.30;;;;;;5017883;28;20025;-91
2023/06/01 12:34:36;;;;;;;8.70;3.75;;;21.30;92.20;;;;;;5018862;28;20022;-88
2023/06/01 12:37:18;;;;;;;9.10;3.60;;;21.40;92.10;;;;;;5026608;28;20026;-88
2023/06/01 12:39:56;;;;;;;9.68;3.25;;;21.40;92.00;;;;;;5014468;28;20033;-88
2023/06/01 12:42:38;;;;;;;7.00;3.45;;;21.50;91.70;;;;;;5029278;28;20013;-88
2023/06/01 12:45:07;;;;;;;8.05;3.28;;;21.50;91.40;;;;;;4985108;28;20187;-87
2023/06/01 12:47:41;;;;;;;7.68;3.20;;;21.60;91.40;;;;;;5016784;28;20119;-91